createdAt,value
2023-01-17T00:00:04.160Z,86
2023-01-17T00:01:11.851Z,86
2023-01-17T00:02:19.233Z,85
2023-01-17T00:03:26.648Z,86
2023-01-17T00:04:33.668Z,86
2023-01-17T00:05:46.050Z,86
2023-01-17T00:06:58.065Z,87
2023-01-17T00:08:10.344Z,87
2023-01-17T00:09:22.384Z,87
2023-01-17T00:10:34.783Z,87
2023-01-17T00:11:41.883Z,87
2023-01-17T00:12:48.960Z,88
2023-01-17T00:13:58.584Z,87
2023-01-17T00:15:05.822Z,87
2023-01-17T00:16:13.500Z,87
2023-01-17T00:17:20.641Z,86
2023-01-17T00:18:28.223Z,86
2023-01-17T00:19:35.239Z,87
2023-01-17T00:20:47.563Z,87
2023-01-17T00:21:59.689Z,87
2023-01-17T00:23:14.946Z,87
2023-01-17T00:24:27.263Z,87
2023-01-17T00:25:39.414Z,87
2023-01-17T00:26:51.603Z,87
2023-01-17T00:28:03.899Z,87
2023-01-17T00:29:11.111Z,87
2023-01-17T00:30:18.071Z,87
2023-01-17T00:31:25.267Z,87
2023-01-17T00:32:32.296Z,88
2023-01-17T00:33:39.475Z,87
2023-01-17T00:34:46.654Z,87
2023-01-17T00:35:53.884Z,87
2023-01-17T00:37:00.925Z,87
2023-01-17T00:38:08.063Z,87
2023-01-17T00:39:15.162Z,87
2023-01-17T00:40:22.379Z,87
2023-01-17T00:41:29.443Z,86
2023-01-17T00:42:37.055Z,86
2023-01-17T00:43:44.219Z,86
2023-01-17T00:44:56.473Z,85
2023-01-17T00:46:08.938Z,85
2023-01-17T00:47:21.482Z,85
2023-01-17T00:48:33.647Z,85
2023-01-17T00:49:45.917Z,85
2023-01-17T00:50:58.087Z,85
2023-01-17T00:52:10.392Z,85
2023-01-17T00:53:22.526Z,85
2023-01-17T00:54:34.727Z,86
2023-01-17T00:55:46.883Z,86
2023-01-17T00:56:59.191Z,85
2023-01-17T00:58:11.450Z,86
2023-01-17T00:59:23.619Z,86
2023-01-17T01:00:35.839Z,86
2023-01-17T01:01:48.122Z,86
2023-01-17T01:03:00.347Z,86
2023-01-17T01:04:15.519Z,86
2023-01-17T01:05:27.738Z,86
2023-01-17T01:06:39.915Z,86
2023-01-17T01:07:52.214Z,85
2023-01-17T01:09:04.575Z,86
2023-01-17T01:10:16.747Z,85
2023-01-17T01:11:29.326Z,85
2023-01-17T01:12:41.522Z,85
2023-01-17T01:13:53.858Z,85
2023-01-17T01:15:06.003Z,85
2023-01-17T01:16:18.252Z,84
2023-01-17T01:17:30.464Z,84
2023-01-17T01:18:42.610Z,84
2023-01-17T01:19:54.907Z,84
2023-01-17T01:21:07.190Z,85
2023-01-17T01:22:19.486Z,84
2023-01-17T01:23:31.512Z,84
2023-01-17T01:24:46.319Z,84
2023-01-17T01:25:58.587Z,84
2023-01-17T01:27:11.038Z,84
2023-01-17T01:28:23.557Z,84
2023-01-17T01:29:35.586Z,84
2023-01-17T01:30:47.965Z,83
2023-01-17T01:32:00.174Z,83
2023-01-17T01:33:12.527Z,82
2023-01-17T01:34:25.006Z,82
2023-01-17T01:35:32.153Z,82
2023-01-17T01:36:39.325Z,83
2023-01-17T01:37:46.499Z,83
2023-01-17T01:38:53.583Z,83
2023-01-17T01:40:00.701Z,82
2023-01-17T01:41:08.472Z,82
2023-01-17T01:42:15.524Z,82
2023-01-17T01:43:22.749Z,82
2023-01-17T01:44:40.257Z,82
2023-01-17T01:45:53.122Z,82
2023-01-17T01:47:00.190Z,81
2023-01-17T01:48:08.319Z,81
2023-01-17T01:49:23.718Z,81
2023-01-17T01:50:30.723Z,81
2023-01-17T01:51:37.903Z,81
2023-01-17T01:52:45.042Z,81
2023-01-17T01:53:52.132Z,82
2023-01-17T01:54:59.391Z,82
2023-01-17T01:56:09.578Z,81
2023-01-17T01:57:16.515Z,81
2023-01-17T01:58:23.691Z,81
2023-01-17T01:59:30.812Z,82
2023-01-17T02:00:37.994Z,81
2023-01-17T02:01:45.244Z,80
2023-01-17T02:02:52.320Z,81
2023-01-17T02:03:59.354Z,81
2023-01-17T02:05:06.469Z,81
2023-01-17T02:06:13.587Z,81
2023-01-17T02:07:25.692Z,81
2023-01-17T02:08:38.034Z,81
2023-01-17T02:09:45.155Z,81
2023-01-17T02:10:52.282Z,81
2023-01-17T02:11:59.446Z,81
2023-01-17T02:13:06.599Z,81
2023-01-17T02:14:13.710Z,80
2023-01-17T02:15:20.806Z,81
2023-01-17T02:16:28.140Z,81
2023-01-17T02:17:40.589Z,80
2023-01-17T02:18:50.822Z,80
2023-01-17T02:20:04.061Z,81
2023-01-17T02:21:16.232Z,80
2023-01-17T02:22:25.925Z,81
2023-01-17T02:23:43.238Z,81
2023-01-17T02:24:55.446Z,81
2023-01-17T02:26:12.741Z,80
2023-01-17T02:27:24.993Z,81
2023-01-17T02:28:31.959Z,82
2023-01-17T02:29:42.202Z,82
2023-01-17T02:30:59.610Z,81
2023-01-17T02:32:09.270Z,82
2023-01-17T02:33:27.025Z,81
2023-01-17T02:34:37.235Z,81
2023-01-17T02:35:52.446Z,81
2023-01-17T02:37:09.775Z,81
2023-01-17T02:38:24.054Z,81
2023-01-17T02:39:36.494Z,81
2023-01-17T02:40:43.415Z,81
2023-01-17T02:41:58.673Z,81
2023-01-17T02:43:05.744Z,81
2023-01-17T02:44:12.954Z,80
2023-01-17T02:45:20.246Z,80
2023-01-17T02:46:27.188Z,81
2023-01-17T02:47:34.290Z,81
2023-01-17T02:48:41.451Z,80
2023-01-17T02:49:48.549Z,81
2023-01-17T02:50:55.686Z,80
2023-01-17T02:52:10.941Z,81
2023-01-17T02:53:23.557Z,80
2023-01-17T02:54:33.401Z,80
2023-01-17T02:55:45.688Z,80
2023-01-17T02:57:00.839Z,81
2023-01-17T02:58:13.157Z,81
2023-01-17T02:59:25.202Z,81
2023-01-17T03:00:42.614Z,80
2023-01-17T03:02:00.172Z,80
2023-01-17T03:03:12.706Z,80
2023-01-17T03:04:25.266Z,80
2023-01-17T03:05:38.633Z,80
2023-01-17T03:06:50.905Z,80
2023-01-17T03:07:57.789Z,80
2023-01-17T03:09:05.107Z,80
2023-01-17T03:10:12.185Z,80
2023-01-17T03:11:19.400Z,80
2023-01-17T03:12:27.063Z,80
2023-01-17T03:13:34.239Z,80
2023-01-17T03:14:41.262Z,80
2023-01-17T03:15:48.357Z,80
2023-01-17T03:16:55.516Z,80
2023-01-17T03:18:02.574Z,81
2023-01-17T03:19:09.697Z,81
2023-01-17T03:20:16.895Z,81
2023-01-17T03:21:24.482Z,81
2023-01-17T03:22:31.601Z,82
2023-01-17T03:23:38.709Z,81
2023-01-17T03:24:45.817Z,82
2023-01-17T03:25:53.254Z,81
2023-01-17T03:27:00.215Z,81
2023-01-17T03:28:07.195Z,82
2023-01-17T03:29:14.455Z,83
2023-01-17T03:30:21.667Z,82
2023-01-17T03:31:28.722Z,82
2023-01-17T03:32:35.813Z,82
2023-01-17T03:33:42.955Z,81
2023-01-17T03:34:50.138Z,82
2023-01-17T03:35:57.162Z,82
2023-01-17T03:37:04.437Z,82
2023-01-17T03:38:11.506Z,82
2023-01-17T03:39:18.622Z,82
2023-01-17T03:40:25.730Z,82
2023-01-17T03:41:32.834Z,82
2023-01-17T03:42:40.003Z,82
2023-01-17T03:43:47.212Z,82
2023-01-17T03:44:54.365Z,81
2023-01-17T03:46:01.566Z,81
2023-01-17T03:47:08.528Z,82
2023-01-17T03:48:15.618Z,82
2023-01-17T03:49:22.845Z,82
2023-01-17T03:50:29.952Z,82
2023-01-17T03:51:37.041Z,82
2023-01-17T03:52:44.319Z,82
2023-01-17T03:53:51.310Z,82
2023-01-17T03:54:58.484Z,82
2023-01-17T03:56:05.644Z,82
2023-01-17T03:57:22.258Z,83
2023-01-17T03:58:29.443Z,83
2023-01-17T03:59:36.696Z,82
2023-01-17T04:00:43.826Z,82
2023-01-17T04:01:51.071Z,82
2023-01-17T04:02:59.134Z,82
2023-01-17T04:04:06.193Z,83
2023-01-17T04:05:13.255Z,82
2023-01-17T04:06:20.514Z,82
2023-01-17T04:07:27.583Z,82
2023-01-17T04:08:34.676Z,83
2023-01-17T04:09:41.908Z,83
2023-01-17T04:10:49.076Z,82
2023-01-17T04:11:56.319Z,82
2023-01-17T04:13:08.609Z,83
2023-01-17T04:14:16.113Z,83
2023-01-17T04:15:23.270Z,83
2023-01-17T04:16:30.326Z,83
2023-01-17T04:17:37.427Z,83
2023-01-17T04:18:50.760Z,82
2023-01-17T04:19:57.797Z,83
2023-01-17T04:21:04.983Z,83
2023-01-17T04:22:12.112Z,83
2023-01-17T04:23:19.181Z,82
2023-01-17T04:24:29.128Z,82
2023-01-17T04:25:36.494Z,82
2023-01-17T04:26:43.549Z,83
2023-01-17T04:27:50.657Z,82
2023-01-17T04:28:57.854Z,82
2023-01-17T04:30:05.165Z,82
2023-01-17T04:31:13.175Z,82
2023-01-17T04:32:20.278Z,82
2023-01-17T04:33:27.397Z,82
2023-01-17T04:34:34.552Z,82
2023-01-17T04:35:41.706Z,82
2023-01-17T04:36:48.821Z,82
2023-01-17T04:37:55.946Z,82
2023-01-17T04:39:03.087Z,82
2023-01-17T04:40:10.193Z,82
2023-01-17T04:41:17.328Z,82
2023-01-17T04:42:24.445Z,82
2023-01-17T04:43:31.622Z,82
2023-01-17T04:44:38.738Z,82
2023-01-17T04:45:45.925Z,82
2023-01-17T04:46:53.079Z,82
2023-01-17T04:48:00.148Z,82
2023-01-17T04:49:07.455Z,82
2023-01-17T04:50:14.991Z,81
2023-01-17T04:51:22.154Z,81
2023-01-17T04:52:29.119Z,81
2023-01-17T04:53:36.259Z,81
2023-01-17T04:54:43.395Z,81
2023-01-17T04:55:50.602Z,80
2023-01-17T04:56:57.818Z,80
2023-01-17T04:58:04.767Z,80
2023-01-17T04:59:11.913Z,80
2023-01-17T05:00:19.097Z,80
2023-01-17T05:01:26.267Z,80
2023-01-17T05:02:33.444Z,80
2023-01-17T05:03:41.385Z,80
2023-01-17T05:04:48.527Z,80
2023-01-17T05:05:55.727Z,80
2023-01-17T05:07:02.857Z,80
2023-01-17T05:08:09.943Z,80
2023-01-17T05:09:17.133Z,81
2023-01-17T05:10:24.149Z,81
2023-01-17T05:11:31.325Z,82
2023-01-17T05:12:38.394Z,81
2023-01-17T05:13:45.542Z,82
2023-01-17T05:14:52.745Z,82
2023-01-17T05:15:59.880Z,83
2023-01-17T05:17:07.013Z,82
2023-01-17T05:18:14.064Z,83
2023-01-17T05:19:21.263Z,82
2023-01-17T05:20:28.308Z,83
2023-01-17T05:21:35.528Z,83
2023-01-17T05:22:42.770Z,82
2023-01-17T05:23:49.725Z,82
2023-01-17T05:24:56.884Z,82
2023-01-17T05:26:04.101Z,82
2023-01-17T05:27:11.186Z,82
2023-01-17T05:28:18.235Z,81
2023-01-17T05:29:25.433Z,81
2023-01-17T05:30:32.443Z,81
2023-01-17T05:31:39.725Z,81
2023-01-17T05:32:48.289Z,81
2023-01-17T05:33:55.456Z,81
2023-01-17T05:35:02.678Z,81
2023-01-17T05:36:10.369Z,82
2023-01-17T05:37:17.946Z,82
2023-01-17T05:38:24.993Z,82
2023-01-17T05:39:32.111Z,81
2023-01-17T05:40:39.193Z,81
2023-01-17T05:41:46.417Z,81
2023-01-17T05:42:53.617Z,81
2023-01-17T05:44:00.792Z,82
2023-01-17T05:45:08.365Z,82
2023-01-17T05:46:15.568Z,82
2023-01-17T05:47:22.646Z,82
2023-01-17T05:48:29.683Z,82
2023-01-17T05:49:36.925Z,81
2023-01-17T05:50:44.119Z,81
2023-01-17T05:51:53.529Z,81
2023-01-17T05:52:58.633Z,81
2023-01-17T05:54:05.788Z,81
2023-01-17T05:55:13.073Z,81
2023-01-17T05:56:20.695Z,81
2023-01-17T05:57:27.804Z,81
2023-01-17T05:58:34.839Z,81
2023-01-17T05:59:42.097Z,81
2023-01-17T06:00:49.235Z,81
2023-01-17T06:01:56.356Z,81
2023-01-17T06:03:03.495Z,81
2023-01-17T06:04:10.485Z,81
2023-01-17T06:05:17.737Z,81
2023-01-17T06:06:24.852Z,80
2023-01-17T06:07:31.829Z,81
2023-01-17T06:08:39.185Z,81
2023-01-17T06:09:46.293Z,81
2023-01-17T06:10:53.383Z,80
2023-01-17T06:12:00.433Z,80
2023-01-17T06:13:07.577Z,80
2023-01-17T06:14:14.815Z,80
2023-01-17T06:15:21.873Z,80
2023-01-17T06:16:28.939Z,80
2023-01-17T06:17:36.005Z,80
2023-01-17T06:18:43.170Z,80
2023-01-17T06:19:50.278Z,80
2023-01-17T06:20:57.506Z,80
2023-01-17T06:22:04.616Z,80
2023-01-17T06:23:11.731Z,81
2023-01-17T06:24:18.930Z,81
2023-01-17T06:25:25.978Z,81
2023-01-17T06:26:33.117Z,81
2023-01-17T06:27:40.418Z,81
2023-01-17T06:28:47.587Z,81
2023-01-17T06:29:55.033Z,81
2023-01-17T06:31:03.154Z,81
2023-01-17T06:32:10.290Z,80
2023-01-17T06:33:17.445Z,81
2023-01-17T06:34:24.587Z,80
2023-01-17T06:35:31.828Z,80
2023-01-17T06:36:38.929Z,80
2023-01-17T06:37:45.976Z,80
2023-01-17T06:38:56.201Z,80
2023-01-17T06:40:03.365Z,80
2023-01-17T06:41:10.933Z,81
2023-01-17T06:42:17.912Z,80
2023-01-17T06:43:26.277Z,81
2023-01-17T06:44:33.337Z,81
2023-01-17T06:45:40.625Z,81
2023-01-17T06:46:47.672Z,81
2023-01-17T06:47:54.707Z,81
2023-01-17T06:49:01.960Z,81
2023-01-17T06:50:09.024Z,81
2023-01-17T06:51:16.162Z,81
2023-01-17T06:52:23.345Z,81
2023-01-17T06:53:30.354Z,81
2023-01-17T06:54:37.485Z,81
2023-01-17T06:55:44.623Z,81
2023-01-17T06:56:51.948Z,81
2023-01-17T06:57:59.189Z,80
2023-01-17T06:59:06.600Z,81
2023-01-17T07:00:14.009Z,81
2023-01-17T07:01:21.656Z,81
2023-01-17T07:02:28.370Z,80
2023-01-17T07:03:36.584Z,81
2023-01-17T07:04:43.649Z,81
2023-01-17T07:05:50.817Z,81
2023-01-17T07:06:57.987Z,81
2023-01-17T07:08:05.124Z,82
2023-01-17T07:09:12.315Z,81
2023-01-17T07:10:19.341Z,81
2023-01-17T07:11:26.541Z,81
2023-01-17T07:12:34.537Z,81
2023-01-17T07:13:41.783Z,81
2023-01-17T07:14:48.889Z,81
2023-01-17T07:15:56.099Z,81
2023-01-17T07:17:06.200Z,81
2023-01-17T07:18:13.273Z,81
2023-01-17T07:19:20.492Z,82
2023-01-17T07:20:28.610Z,82
2023-01-17T07:21:35.659Z,81
2023-01-17T07:22:42.838Z,81
2023-01-17T07:23:50.044Z,81
2023-01-17T07:24:57.353Z,82
2023-01-17T07:26:04.860Z,81
2023-01-17T07:27:11.936Z,81
2023-01-17T07:28:19.105Z,81
2023-01-17T07:29:27.194Z,81
2023-01-17T07:30:34.336Z,81
2023-01-17T07:31:41.423Z,81
2023-01-17T07:32:48.483Z,81
2023-01-17T07:33:55.658Z,81
2023-01-17T07:35:02.823Z,81
2023-01-17T07:36:10.432Z,81
2023-01-17T07:37:17.641Z,82
2023-01-17T07:38:24.760Z,82
2023-01-17T07:39:31.854Z,81
2023-01-17T07:40:42.274Z,81
2023-01-17T07:41:46.244Z,81
2023-01-17T07:42:53.198Z,81
2023-01-17T07:44:05.552Z,82
2023-01-17T07:45:15.748Z,82
2023-01-17T07:46:22.827Z,81
2023-01-17T07:47:29.841Z,81
2023-01-17T07:48:36.970Z,81
2023-01-17T07:49:44.380Z,81
2023-01-17T07:50:51.311Z,81
2023-01-17T07:51:58.423Z,81
2023-01-17T07:53:06.087Z,81
2023-01-17T07:54:13.272Z,81
2023-01-17T07:55:20.368Z,81
2023-01-17T07:56:27.613Z,81
2023-01-17T07:57:34.533Z,81
2023-01-17T07:58:42.804Z,81
2023-01-17T07:59:50.285Z,81
2023-01-17T08:00:58.408Z,81
2023-01-17T08:02:05.720Z,81
2023-01-17T08:03:21.027Z,81
2023-01-17T08:04:28.108Z,82
2023-01-17T08:05:35.179Z,81
2023-01-17T08:06:42.344Z,81
2023-01-17T08:07:49.509Z,81
2023-01-17T08:08:56.566Z,81
2023-01-17T08:10:03.606Z,81
2023-01-17T08:11:12.864Z,81
2023-01-17T08:12:19.976Z,81
2023-01-17T08:13:29.066Z,81
2023-01-17T08:14:34.248Z,81
2023-01-17T08:15:41.340Z,81
2023-01-17T08:16:48.572Z,81
2023-01-17T08:17:55.621Z,81
2023-01-17T08:19:02.801Z,81
2023-01-17T08:20:09.939Z,81
2023-01-17T08:21:17.135Z,81
2023-01-17T08:22:24.204Z,81
2023-01-17T08:23:31.636Z,81
2023-01-17T08:24:39.442Z,81
2023-01-17T08:25:46.434Z,80
2023-01-17T08:26:53.648Z,81
2023-01-17T08:28:00.731Z,81
2023-01-17T08:29:07.892Z,81
2023-01-17T08:30:15.062Z,81
2023-01-17T08:31:24.266Z,81
2023-01-17T08:32:31.375Z,81
2023-01-17T08:33:38.396Z,80
2023-01-17T08:34:45.640Z,80
2023-01-17T08:35:52.658Z,80
2023-01-17T08:36:59.869Z,80
2023-01-17T08:38:06.909Z,80
2023-01-17T08:39:14.069Z,81
2023-01-17T08:40:21.192Z,80
2023-01-17T08:41:30.118Z,80
2023-01-17T08:42:37.413Z,80
2023-01-17T08:43:44.600Z,80
2023-01-17T08:44:51.669Z,80
2023-01-17T08:45:58.941Z,80
2023-01-17T08:47:06.014Z,80
2023-01-17T08:48:13.164Z,80
2023-01-17T08:49:20.763Z,80
2023-01-17T08:50:28.039Z,80
2023-01-17T08:51:35.204Z,81
2023-01-17T08:52:42.632Z,80
2023-01-17T08:53:53.744Z,80
2023-01-17T08:55:00.918Z,81
2023-01-17T08:56:08.111Z,81
2023-01-17T08:57:15.113Z,80
2023-01-17T08:58:23.416Z,81
2023-01-17T08:59:30.560Z,81
2023-01-17T09:00:37.512Z,81
2023-01-17T09:01:44.875Z,80
2023-01-17T09:02:51.857Z,80
2023-01-17T09:03:59.081Z,80
2023-01-17T09:05:06.137Z,80
2023-01-17T09:06:13.303Z,81
2023-01-17T09:07:20.485Z,80
2023-01-17T09:08:27.417Z,80
2023-01-17T09:09:34.689Z,80
2023-01-17T09:10:41.785Z,81
2023-01-17T09:11:48.868Z,81
2023-01-17T09:12:56.181Z,80
2023-01-17T09:14:03.357Z,81
2023-01-17T09:15:10.291Z,80
2023-01-17T09:16:17.485Z,80
2023-01-17T09:17:24.484Z,79
2023-01-17T09:18:31.676Z,80
2023-01-17T09:19:42.574Z,80
2023-01-17T09:20:50.036Z,80
2023-01-17T09:21:57.059Z,80
2023-01-17T09:23:04.223Z,79
2023-01-17T09:24:11.334Z,80
2023-01-17T09:25:18.449Z,79
2023-01-17T09:26:25.618Z,79
2023-01-17T09:27:32.662Z,79
2023-01-17T09:28:40.920Z,80
2023-01-17T09:29:48.048Z,80
2023-01-17T09:30:55.112Z,79
2023-01-17T09:32:02.220Z,79
2023-01-17T09:33:09.284Z,79
2023-01-17T09:34:16.604Z,79
2023-01-17T09:35:23.709Z,78
2023-01-17T09:36:30.663Z,78
2023-01-17T09:37:37.872Z,79
2023-01-17T09:38:45.971Z,78
2023-01-17T09:39:53.109Z,78
2023-01-17T09:41:00.312Z,79
2023-01-17T09:42:07.335Z,78
2023-01-17T09:43:24.723Z,78
2023-01-17T09:44:40.015Z,78
2023-01-17T09:45:53.396Z,77
2023-01-17T09:47:00.457Z,77
2023-01-17T09:48:10.044Z,77
2023-01-17T09:49:17.132Z,77
2023-01-17T09:50:34.389Z,77
2023-01-17T09:51:47.647Z,77
2023-01-17T09:52:54.819Z,76
2023-01-17T09:54:01.960Z,76
2023-01-17T09:55:09.161Z,76
2023-01-17T09:56:16.391Z,75
2023-01-17T09:57:23.808Z,75
2023-01-17T09:58:41.196Z,75
2023-01-17T10:00:03.412Z,74
2023-01-17T10:01:16.466Z,74
2023-01-17T10:02:26.755Z,74
2023-01-17T10:03:43.431Z,73
2023-01-17T10:04:55.404Z,73
2023-01-17T10:06:12.660Z,73
2023-01-17T10:07:19.828Z,73
2023-01-17T10:08:37.069Z,73
2023-01-17T10:09:49.467Z,72
2023-01-17T10:11:07.188Z,71
2023-01-17T10:12:19.465Z,71
2023-01-17T10:13:37.136Z,71
2023-01-17T10:14:52.030Z,71
2023-01-17T10:16:07.298Z,71
2023-01-17T10:17:19.483Z,70
2023-01-17T10:18:36.716Z,71
2023-01-17T10:19:49.451Z,70
2023-01-17T10:21:06.860Z,70
2023-01-17T10:22:13.841Z,70
2023-01-17T10:23:24.248Z,70
2023-01-17T10:24:41.945Z,70
2023-01-17T10:25:51.636Z,69
2023-01-17T10:26:58.903Z,69
2023-01-17T10:28:05.875Z,69
2023-01-17T10:29:20.043Z,69
2023-01-17T10:30:25.522Z,69
2023-01-17T10:31:37.820Z,69
2023-01-17T10:32:45.140Z,69
2023-01-17T10:33:52.244Z,69
2023-01-17T10:34:59.261Z,68
2023-01-17T10:36:06.385Z,69
2023-01-17T10:37:18.661Z,68
2023-01-17T10:38:33.857Z,68
2023-01-17T10:39:41.055Z,67
2023-01-17T10:40:48.252Z,67
2023-01-17T10:41:55.321Z,68
2023-01-17T10:43:10.774Z,67
2023-01-17T10:44:23.837Z,67
2023-01-17T10:45:30.972Z,66
2023-01-17T10:46:38.148Z,66
2023-01-17T10:47:45.128Z,66
2023-01-17T10:48:52.436Z,66
2023-01-17T10:49:59.468Z,66
2023-01-17T10:51:06.628Z,67
2023-01-17T10:52:21.868Z,67
2023-01-17T10:53:37.419Z,66
2023-01-17T10:54:49.885Z,66
2023-01-17T10:56:02.045Z,66
2023-01-17T10:57:09.296Z,67
2023-01-17T10:58:19.476Z,66
2023-01-17T10:59:26.521Z,67
2023-01-17T11:00:36.632Z,67
2023-01-17T11:01:51.593Z,66
2023-01-17T11:02:58.626Z,67
2023-01-17T11:04:05.703Z,66
2023-01-17T11:05:13.848Z,67
2023-01-17T11:06:23.859Z,67
2023-01-17T11:07:31.181Z,67
2023-01-17T11:08:38.259Z,67
2023-01-17T11:09:53.550Z,67
2023-01-17T11:11:00.629Z,67
2023-01-17T11:12:07.947Z,67
2023-01-17T11:13:25.106Z,67
2023-01-17T11:14:35.185Z,67
2023-01-17T11:15:42.410Z,67
2023-01-17T11:16:49.471Z,67
2023-01-17T11:18:01.728Z,67
2023-01-17T11:19:08.928Z,66
2023-01-17T11:20:18.617Z,66
2023-01-17T11:21:36.285Z,65
2023-01-17T11:22:43.447Z,66
2023-01-17T11:23:50.528Z,66
2023-01-17T11:24:57.695Z,66
2023-01-17T11:26:04.838Z,66
2023-01-17T11:27:11.997Z,66
2023-01-17T11:28:27.260Z,66
2023-01-17T11:29:36.059Z,65
2023-01-17T11:30:41.643Z,65
2023-01-17T11:31:53.728Z,64
2023-01-17T11:33:00.867Z,65
2023-01-17T11:34:08.016Z,64
2023-01-17T11:35:17.753Z,63
2023-01-17T11:36:30.020Z,62
2023-01-17T11:37:37.071Z,61
2023-01-17T11:38:44.045Z,61
2023-01-17T11:40:01.423Z,61
2023-01-17T11:41:11.619Z,59
2023-01-17T11:42:23.909Z,60
2023-01-17T11:43:33.936Z,60
2023-01-17T11:44:41.146Z,60
2023-01-17T11:45:48.159Z,60
2023-01-17T11:47:02.962Z,61
2023-01-17T11:48:15.227Z,61
2023-01-17T11:49:22.311Z,61
2023-01-17T11:50:29.473Z,61
2023-01-17T11:51:36.572Z,62
2023-01-17T11:52:43.781Z,62
2023-01-17T11:53:50.817Z,61
2023-01-17T11:54:57.988Z,61
2023-01-17T11:56:05.137Z,62
2023-01-17T11:57:12.273Z,62
2023-01-17T11:58:24.470Z,61
2023-01-17T11:59:31.750Z,61
2023-01-17T12:00:41.883Z,61
2023-01-17T12:01:48.917Z,61
2023-01-17T12:03:01.103Z,61
2023-01-17T12:04:11.027Z,61
2023-01-17T12:05:29.053Z,61
2023-01-17T12:06:57.064Z,60
2023-01-17T12:08:04.998Z,60
2023-01-17T12:09:23.194Z,60
2023-01-17T12:10:38.841Z,60
2023-01-17T12:11:49.047Z,60
2023-01-17T12:13:09.420Z,60
2023-01-17T12:14:24.766Z,60
2023-01-17T12:15:34.944Z,60
2023-01-17T12:16:47.672Z,59
2023-01-17T12:18:04.894Z,59
2023-01-17T12:19:14.627Z,58
2023-01-17T12:20:32.455Z,58
2023-01-17T12:21:48.183Z,59
2023-01-17T12:23:05.596Z,59
2023-01-17T12:24:12.690Z,60
2023-01-17T12:25:29.920Z,60
2023-01-17T12:26:40.083Z,60
2023-01-17T12:27:57.568Z,59
2023-01-17T12:29:14.708Z,59
2023-01-17T12:30:29.533Z,59
2023-01-17T12:31:42.391Z,59
2023-01-17T12:32:49.414Z,59
2023-01-17T12:34:01.484Z,59
2023-01-17T12:35:16.825Z,59
2023-01-17T12:36:26.511Z,58
2023-01-17T12:37:38.699Z,59
2023-01-17T12:38:45.900Z,59
2023-01-17T12:39:52.926Z,58
2023-01-17T12:41:00.156Z,59
2023-01-17T12:42:12.357Z,59
2023-01-17T12:43:22.492Z,59
2023-01-17T12:44:32.683Z,59
2023-01-17T12:45:47.611Z,59
2023-01-17T12:46:54.720Z,58
2023-01-17T12:48:04.215Z,59
2023-01-17T12:49:19.595Z,59
2023-01-17T12:50:36.735Z,59
2023-01-17T12:51:43.906Z,59
2023-01-17T12:52:51.143Z,58
2023-01-17T12:54:06.297Z,59
2023-01-17T12:55:18.551Z,58
2023-01-17T12:56:30.789Z,58
2023-01-17T12:57:42.955Z,58
2023-01-17T12:58:50.107Z,58
2023-01-17T13:00:07.439Z,57
2023-01-17T13:01:17.629Z,58
2023-01-17T13:02:27.188Z,58
2023-01-17T13:03:36.898Z,58
2023-01-17T13:04:57.586Z,57
2023-01-17T13:05:51.170Z,58
2023-01-17T13:06:58.267Z,58
2023-01-17T13:08:10.464Z,57
2023-01-17T13:09:25.341Z,58
2023-01-17T13:10:34.839Z,57
2023-01-17T13:11:45.056Z,57
2023-01-17T13:12:52.159Z,58
2023-01-17T13:13:59.323Z,57
2023-01-17T13:15:06.486Z,57
2023-01-17T13:16:18.738Z,57
2023-01-17T13:17:25.793Z,57
2023-01-17T13:18:40.575Z,58
2023-01-17T13:19:47.774Z,58
2023-01-17T13:21:00.474Z,58
2023-01-17T13:22:15.276Z,58
2023-01-17T13:23:22.434Z,58
2023-01-17T13:24:37.620Z,56
2023-01-17T13:25:47.319Z,57
2023-01-17T13:26:54.464Z,57
2023-01-17T13:28:11.731Z,58
2023-01-17T13:29:24.096Z,58
2023-01-17T13:30:36.782Z,59
2023-01-17T13:31:44.235Z,59
2023-01-17T13:32:56.611Z,59
2023-01-17T13:34:08.891Z,59
2023-01-17T13:35:26.202Z,59
2023-01-17T13:36:36.387Z,60
2023-01-17T13:37:48.477Z,61
2023-01-17T13:39:05.843Z,60
2023-01-17T13:40:23.175Z,60
2023-01-17T13:41:35.363Z,61
2023-01-17T13:42:50.171Z,61
2023-01-17T13:44:04.898Z,61
2023-01-17T13:45:17.214Z,61
2023-01-17T13:46:24.203Z,61
2023-01-17T13:47:31.370Z,61
2023-01-17T13:48:39.579Z,61
2023-01-17T13:49:46.635Z,61
2023-01-17T13:50:53.727Z,61
2023-01-17T13:52:05.922Z,61
2023-01-17T13:53:23.698Z,62
2023-01-17T13:54:30.853Z,61
2023-01-17T13:55:38.103Z,61
2023-01-17T13:56:47.687Z,61
2023-01-17T13:57:54.839Z,61
2023-01-17T13:59:01.975Z,61
2023-01-17T14:00:09.061Z,61
2023-01-17T14:01:16.347Z,60
2023-01-17T14:02:26.315Z,60
2023-01-17T14:03:36.575Z,60
2023-01-17T14:04:53.931Z,60
2023-01-17T14:06:08.642Z,60
2023-01-17T14:07:25.923Z,60
2023-01-17T14:08:32.986Z,60
2023-01-17T14:09:40.134Z,60
2023-01-17T14:10:47.363Z,60
2023-01-17T14:11:57.415Z,60
2023-01-17T14:13:07.050Z,60
2023-01-17T14:14:24.431Z,60
2023-01-17T14:15:39.564Z,60
2023-01-17T14:16:51.826Z,61
2023-01-17T14:17:58.981Z,60
2023-01-17T14:19:06.042Z,61
2023-01-17T14:20:13.178Z,61
2023-01-17T14:21:20.455Z,61
2023-01-17T14:22:35.718Z,61
2023-01-17T14:23:40.215Z,61
2023-01-17T14:24:49.905Z,61
2023-01-17T14:26:05.009Z,61
2023-01-17T14:27:14.765Z,61
2023-01-17T14:28:21.855Z,61
2023-01-17T14:29:31.475Z,62
2023-01-17T14:30:48.770Z,61
2023-01-17T14:31:55.714Z,62
2023-01-17T14:33:02.462Z,62
2023-01-17T14:34:09.679Z,62
2023-01-17T14:35:16.831Z,62
2023-01-17T14:36:24.058Z,62
2023-01-17T14:37:30.999Z,62
2023-01-17T14:38:46.412Z,62
2023-01-17T14:39:53.458Z,62
2023-01-17T14:41:00.485Z,62
2023-01-17T14:42:10.590Z,62
2023-01-17T14:43:17.824Z,62
2023-01-17T14:44:24.856Z,62
2023-01-17T14:45:31.657Z,62
2023-01-17T14:46:38.734Z,62
2023-01-17T14:47:46.967Z,62
2023-01-17T14:48:53.974Z,62
2023-01-17T14:50:06.330Z,62
2023-01-17T14:51:21.055Z,62
2023-01-17T14:52:28.132Z,62
2023-01-17T14:53:35.275Z,62
2023-01-17T14:54:42.482Z,62
2023-01-17T14:55:52.538Z,62
2023-01-17T14:57:05.771Z,62
2023-01-17T14:58:23.088Z,62
2023-01-17T14:59:30.186Z,62
2023-01-17T15:00:37.268Z,62
2023-01-17T15:01:52.482Z,62
2023-01-17T15:02:59.601Z,62
2023-01-17T15:04:06.670Z,62
2023-01-17T15:05:24.187Z,62
2023-01-17T15:06:31.132Z,62
2023-01-17T15:07:41.352Z,62
2023-01-17T15:08:48.439Z,62
2023-01-17T15:09:58.608Z,62
2023-01-17T15:11:05.741Z,62
2023-01-17T15:12:17.975Z,62
2023-01-17T15:13:35.568Z,62
2023-01-17T15:14:37.316Z,62
2023-01-17T15:15:44.417Z,62
2023-01-17T15:16:51.519Z,62
2023-01-17T15:17:58.579Z,62
2023-01-17T15:19:10.920Z,62
2023-01-17T15:20:18.039Z,62
2023-01-17T15:21:25.290Z,62
2023-01-17T15:22:35.279Z,62
2023-01-17T15:23:42.544Z,62
2023-01-17T15:24:52.664Z,62
2023-01-17T15:25:59.876Z,62
2023-01-17T15:27:06.959Z,62
2023-01-17T15:28:17.071Z,62
2023-01-17T15:29:24.161Z,62
2023-01-17T15:30:33.934Z,62
2023-01-17T15:31:40.910Z,62
2023-01-17T15:32:50.927Z,62
2023-01-17T15:33:57.800Z,62
2023-01-17T15:35:04.880Z,62
2023-01-17T15:36:12.058Z,62
2023-01-17T15:37:24.353Z,62
2023-01-17T15:38:38.450Z,62
2023-01-17T15:39:41.563Z,63
2023-01-17T15:40:48.695Z,63
2023-01-17T15:41:55.788Z,63
2023-01-17T15:43:02.900Z,63
2023-01-17T15:44:10.008Z,63
2023-01-17T15:45:27.425Z,63
2023-01-17T15:46:34.384Z,63
2023-01-17T15:47:44.065Z,63
2023-01-17T15:48:51.187Z,63
2023-01-17T15:49:58.351Z,63
2023-01-17T15:51:05.632Z,63
2023-01-17T15:52:12.709Z,63
2023-01-17T15:53:19.782Z,63
2023-01-17T15:54:31.890Z,63
2023-01-17T15:55:39.032Z,63
2023-01-17T15:56:46.163Z,63
2023-01-17T15:57:53.243Z,63
2023-01-17T15:59:00.462Z,63
2023-01-17T16:00:18.785Z,64
2023-01-17T16:01:31.320Z,64
2023-01-17T16:02:38.772Z,64
2023-01-17T16:03:45.261Z,67
2023-01-17T16:04:55.481Z,66
2023-01-17T16:06:02.530Z,65
2023-01-17T16:07:09.665Z,65
2023-01-17T16:08:21.936Z,65
2023-01-17T16:09:28.950Z,65
2023-01-17T16:10:46.395Z,65
2023-01-17T16:11:53.525Z,65
2023-01-17T16:13:00.630Z,66
2023-01-17T16:14:07.725Z,66
2023-01-17T16:15:16.405Z,66
2023-01-17T16:16:22.234Z,66
2023-01-17T16:17:29.186Z,66
2023-01-17T16:18:36.202Z,65
2023-01-17T16:19:43.382Z,65
2023-01-17T16:20:50.382Z,66
2023-01-17T16:22:00.138Z,66
2023-01-17T16:23:07.242Z,66
2023-01-17T16:24:15.870Z,66
2023-01-17T16:25:23.258Z,66